sensor_id;sensor_type;location;lat;lon;timestamp;temperature;humidity
31038;DHT22;17702;47.590;7.666;2023-02-05T00:01:09;4.80;99.90
31038;DHT22;17702;47.590;7.666;2023-02-05T00:03:34;4.80;99.90
31038;DHT22;17702;47.590;7.666;2023-02-05T00:06:01;4.80;99.90
31038;DHT22;17702;47.590;7.666;2023-02-05T00:08:26;4.80;99.90
31038;DHT22;17702;47.590;7.666;2023-02-05T00:10:54;5.00;99.90
31038;DHT22;17702;47.590;7.666;2023-02-05T00:13:20;5.10;99.90
31038;DHT22;17702;47.590;7.666;2023-02-05T00:15:45;5.10;99.90
31038;DHT22;17702;47.590;7.666;2023-02-05T00:18:11;5.10;99.90
31038;DHT22;17702;47.590;7.666;2023-02-05T00:20:36;5.10;99.90
31038;DHT22;17702;47.590;7.666;2023-02-05T00:23:02;5.20;99.90
31038;DHT22;17702;47.590;7.666;2023-02-05T00:25:28;5.30;99.90
31038;DHT22;17702;47.590;7.666;2023-02-05T00:27:53;5.30;99.90
31038;DHT22;17702;47.590;7.666;2023-02-05T00:30:19;5.40;99.90
31038;DHT22;17702;47.590;7.666;2023-02-05T00:32:44;5.50;99.90
31038;DHT22;17702;47.590;7.666;2023-02-05T00:35:10;5.40;99.90
31038;DHT22;17702;47.590;7.666;2023-02-05T00:37:35;5.30;99.90
31038;DHT22;17702;47.590;7.666;2023-02-05T00:40:01;5.40;99.90
31038;DHT22;17702;47.590;7.666;2023-02-05T00:42:26;5.40;99.90
31038;DHT22;17702;47.590;7.666;2023-02-05T00:44:52;5.40;99.90
31038;DHT22;17702;47.590;7.666;2023-02-05T00:47:17;5.40;99.90
31038;DHT22;17702;47.590;7.666;2023-02-05T00:49:43;5.60;99.90
31038;DHT22;17702;47.590;7.666;2023-02-05T00:52:08;5.60;99.90
31038;DHT22;17702;47.590;7.666;2023-02-05T00:54:34;5.50;99.90
31038;DHT22;17702;47.590;7.666;2023-02-05T00:56:59;5.60;99.90
31038;DHT22;17702;47.590;7.666;2023-02-05T00:59:25;5.60;99.90
31038;DHT22;17702;47.590;7.666;2023-02-05T01:01:50;5.70;99.90
31038;DHT22;17702;47.590;7.666;2023-02-05T01:04:16;5.70;99.90
31038;DHT22;17702;47.590;7.666;2023-02-05T01:06:41;5.80;99.90
31038;DHT22;17702;47.590;7.666;2023-02-05T01:09:06;5.70;99.90
31038;DHT22;17702;47.590;7.666;2023-02-05T01:11:32;5.70;99.90
31038;DHT22;17702;47.590;7.666;2023-02-05T01:13:57;5.60;99.90
31038;DHT22;17702;47.590;7.666;2023-02-05T01:16:23;5.60;99.90
31038;DHT22;17702;47.590;7.666;2023-02-05T01:18:48;5.60;99.90
31038;DHT22;17702;47.590;7.666;2023-02-05T01:21:14;5.70;99.90
31038;DHT22;17702;47.590;7.666;2023-02-05T01:23:39;5.60;99.90
31038;DHT22;17702;47.590;7.666;2023-02-05T01:26:05;5.50;99.90
31038;DHT22;17702;47.590;7.666;2023-02-05T01:28:30;5.40;99.90
31038;DHT22;17702;47.590;7.666;2023-02-05T01:30:56;5.30;99.90
31038;DHT22;17702;47.590;7.666;2023-02-05T01:33:21;5.20;99.90
31038;DHT22;17702;47.590;7.666;2023-02-05T01:35:47;5.00;99.90
31038;DHT22;17702;47.590;7.666;2023-02-05T01:38:13;5.00;99.90
31038;DHT22;17702;47.590;7.666;2023-02-05T01:40:38;4.90;99.90
31038;DHT22;17702;47.590;7.666;2023-02-05T01:43:08;4.70;99.90
31038;DHT22;17702;47.590;7.666;2023-02-05T01:45:45;4.70;99.90
31038;DHT22;17702;47.590;7.666;2023-02-05T01:48:15;4.60;99.90
31038;DHT22;17702;47.590;7.666;2023-02-05T01:50:43;4.50;99.90
31038;DHT22;17702;47.590;7.666;2023-02-05T01:53:29;4.70;99.90
31038;DHT22;17702;47.590;7.666;2023-02-05T01:58:21;4.60;99.90
31038;DHT22;17702;47.590;7.666;2023-02-05T02:00:47;4.50;99.90
31038;DHT22;17702;47.590;7.666;2023-02-05T02:03:13;4.50;99.90
31038;DHT22;17702;47.590;7.666;2023-02-05T02:05:38;4.50;99.90
31038;DHT22;17702;47.590;7.666;2023-02-05T02:08:04;4.50;99.90
31038;DHT22;17702;47.590;7.666;2023-02-05T02:10:29;4.40;99.90
31038;DHT22;17702;47.590;7.666;2023-02-05T02:12:56;4.40;99.90
31038;DHT22;17702;47.590;7.666;2023-02-05T02:15:22;4.30;99.90
31038;DHT22;17702;47.590;7.666;2023-02-05T02:17:51;4.10;99.90
31038;DHT22;17702;47.590;7.666;2023-02-05T02:20:19;4.30;99.90
31038;DHT22;17702;47.590;7.666;2023-02-05T02:30:34;4.10;99.90
31038;DHT22;17702;47.590;7.666;2023-02-05T02:38:33;4.10;99.90
31038;DHT22;17702;47.590;7.666;2023-02-05T02:41:06;4.20;99.90
31038;DHT22;17702;47.590;7.666;2023-02-05T02:43:37;4.20;99.90
31038;DHT22;17702;47.590;7.666;2023-02-05T02:46:05;4.10;99.90
31038;DHT22;17702;47.590;7.666;2023-02-05T02:48:32;4.10;99.90
31038;DHT22;17702;47.590;7.666;2023-02-05T02:50:59;4.10;99.90
31038;DHT22;17702;47.590;7.666;2023-02-05T02:53:27;4.00;99.90
31038;DHT22;17702;47.590;7.666;2023-02-05T02:55:54;3.80;99.90
31038;DHT22;17702;47.590;7.666;2023-02-05T02:58:26;3.80;99.90
31038;DHT22;17702;47.590;7.666;2023-02-05T03:00:51;3.70;99.90
31038;DHT22;17702;47.590;7.666;2023-02-05T03:03:19;3.80;99.90
31038;DHT22;17702;47.590;7.666;2023-02-05T03:05:45;4.00;99.90
31038;DHT22;17702;47.590;7.666;2023-02-05T03:08:22;4.10;99.90
31038;DHT22;17702;47.590;7.666;2023-02-05T03:10:54;4.00;99.90
31038;DHT22;17702;47.590;7.666;2023-02-05T03:13:23;4.20;99.90
31038;DHT22;17702;47.590;7.666;2023-02-05T03:15:48;4.30;99.90
31038;DHT22;17702;47.590;7.666;2023-02-05T03:18:14;4.40;99.90
31038;DHT22;17702;47.590;7.666;2023-02-05T03:20:43;4.30;99.90
31038;DHT22;17702;47.590;7.666;2023-02-05T03:23:09;4.50;99.90
31038;DHT22;17702;47.590;7.666;2023-02-05T03:25:35;4.60;99.90
31038;DHT22;17702;47.590;7.666;2023-02-05T03:28:01;4.40;99.90
31038;DHT22;17702;47.590;7.666;2023-02-05T03:30:28;4.50;99.90
31038;DHT22;17702;47.590;7.666;2023-02-05T03:35:42;4.60;99.90
31038;DHT22;17702;47.590;7.666;2023-02-05T03:40:41;4.70;99.90
31038;DHT22;17702;47.590;7.666;2023-02-05T03:50:37;4.60;99.90
31038;DHT22;17702;47.590;7.666;2023-02-05T03:53:13;4.70;99.90
31038;DHT22;17702;47.590;7.666;2023-02-05T03:55:44;4.70;99.90
31038;DHT22;17702;47.590;7.666;2023-02-05T03:58:11;4.70;99.90
31038;DHT22;17702;47.590;7.666;2023-02-05T04:00:38;4.70;99.90
31038;DHT22;17702;47.590;7.666;2023-02-05T04:03:04;4.70;99.90
31038;DHT22;17702;47.590;7.666;2023-02-05T04:05:30;4.80;99.90
31038;DHT22;17702;47.590;7.666;2023-02-05T04:07:56;4.80;99.90
31038;DHT22;17702;47.590;7.666;2023-02-05T04:10:21;4.90;99.90
31038;DHT22;17702;47.590;7.666;2023-02-05T04:12:47;5.00;99.90
31038;DHT22;17702;47.590;7.666;2023-02-05T04:15:12;5.10;99.90
31038;DHT22;17702;47.590;7.666;2023-02-05T04:17:38;5.00;99.90
31038;DHT22;17702;47.590;7.666;2023-02-05T04:20:04;5.00;99.90
31038;DHT22;17702;47.590;7.666;2023-02-05T04:22:30;4.90;99.90
31038;DHT22;17702;47.590;7.666;2023-02-05T04:24:55;4.80;99.90
31038;DHT22;17702;47.590;7.666;2023-02-05T04:27:21;4.90;99.90
31038;DHT22;17702;47.590;7.666;2023-02-05T04:29:46;5.00;99.90
31038;DHT22;17702;47.590;7.666;2023-02-05T04:32:12;5.00;99.90
31038;DHT22;17702;47.590;7.666;2023-02-05T04:34:37;4.90;99.90
31038;DHT22;17702;47.590;7.666;2023-02-05T04:37:03;5.00;99.90
31038;DHT22;17702;47.590;7.666;2023-02-05T04:39:28;5.00;99.90
31038;DHT22;17702;47.590;7.666;2023-02-05T04:41:54;5.00;99.90
31038;DHT22;17702;47.590;7.666;2023-02-05T04:44:19;5.00;99.90
31038;DHT22;17702;47.590;7.666;2023-02-05T04:46:45;5.00;99.90
31038;DHT22;17702;47.590;7.666;2023-02-05T04:49:10;5.00;99.90
31038;DHT22;17702;47.590;7.666;2023-02-05T04:51:36;5.00;99.90
31038;DHT22;17702;47.590;7.666;2023-02-05T04:54:01;5.00;99.90
31038;DHT22;17702;47.590;7.666;2023-02-05T04:56:27;4.90;99.90
31038;DHT22;17702;47.590;7.666;2023-02-05T04:58:52;4.90;99.90
31038;DHT22;17702;47.590;7.666;2023-02-05T05:01:19;4.90;99.90
31038;DHT22;17702;47.590;7.666;2023-02-05T05:03:45;5.00;99.90
31038;DHT22;17702;47.590;7.666;2023-02-05T05:06:10;5.10;99.90
31038;DHT22;17702;47.590;7.666;2023-02-05T05:08:36;5.20;99.90
31038;DHT22;17702;47.590;7.666;2023-02-05T05:11:08;5.30;99.90
31038;DHT22;17702;47.590;7.666;2023-02-05T05:13:34;5.20;99.90
31038;DHT22;17702;47.590;7.666;2023-02-05T05:16:00;5.00;99.90
31038;DHT22;17702;47.590;7.666;2023-02-05T05:18:26;4.90;99.90
31038;DHT22;17702;47.590;7.666;2023-02-05T05:20:51;4.90;99.90
31038;DHT22;17702;47.590;7.666;2023-02-05T05:23:17;4.90;99.90
31038;DHT22;17702;47.590;7.666;2023-02-05T05:25:43;4.80;99.90
31038;DHT22;17702;47.590;7.666;2023-02-05T05:28:09;4.80;99.90
31038;DHT22;17702;47.590;7.666;2023-02-05T05:30:36;4.80;99.90
31038;DHT22;17702;47.590;7.666;2023-02-05T05:33:02;4.90;99.90
31038;DHT22;17702;47.590;7.666;2023-02-05T05:35:27;4.90;99.90
31038;DHT22;17702;47.590;7.666;2023-02-05T05:37:55;4.90;99.90
31038;DHT22;17702;47.590;7.666;2023-02-05T05:40:20;4.90;99.90
31038;DHT22;17702;47.590;7.666;2023-02-05T05:43:04;5.00;99.90
31038;DHT22;17702;47.590;7.666;2023-02-05T05:45:48;4.90;99.90
31038;DHT22;17702;47.590;7.666;2023-02-05T05:48:14;4.80;99.90
31038;DHT22;17702;47.590;7.666;2023-02-05T05:50:40;5.00;99.90
31038;DHT22;17702;47.590;7.666;2023-02-05T05:53:05;4.90;99.90
31038;DHT22;17702;47.590;7.666;2023-02-05T05:55:31;4.80;99.90
31038;DHT22;17702;47.590;7.666;2023-02-05T05:57:56;4.80;99.90
31038;DHT22;17702;47.590;7.666;2023-02-05T06:00:22;4.80;99.90
31038;DHT22;17702;47.590;7.666;2023-02-05T06:02:47;4.80;99.90
31038;DHT22;17702;47.590;7.666;2023-02-05T06:05:13;4.90;99.90
31038;DHT22;17702;47.590;7.666;2023-02-05T06:07:38;5.00;99.90
31038;DHT22;17702;47.590;7.666;2023-02-05T06:10:04;5.00;99.90
31038;DHT22;17702;47.590;7.666;2023-02-05T06:12:29;5.10;99.90
31038;DHT22;17702;47.590;7.666;2023-02-05T06:14:55;5.20;99.90
31038;DHT22;17702;47.590;7.666;2023-02-05T06:17:20;5.20;99.90
31038;DHT22;17702;47.590;7.666;2023-02-05T06:19:46;5.20;99.90
31038;DHT22;17702;47.590;7.666;2023-02-05T06:22:11;5.30;99.90
31038;DHT22;17702;47.590;7.666;2023-02-05T06:24:37;5.20;99.90
31038;DHT22;17702;47.590;7.666;2023-02-05T06:27:02;5.10;99.90
31038;DHT22;17702;47.590;7.666;2023-02-05T06:29:28;5.00;99.90
31038;DHT22;17702;47.590;7.666;2023-02-05T06:31:53;5.00;99.90
31038;DHT22;17702;47.590;7.666;2023-02-05T06:34:19;5.00;99.90
31038;DHT22;17702;47.590;7.666;2023-02-05T06:36:44;4.90;99.90
31038;DHT22;17702;47.590;7.666;2023-02-05T06:39:10;4.80;99.90
31038;DHT22;17702;47.590;7.666;2023-02-05T06:41:35;4.70;99.90
31038;DHT22;17702;47.590;7.666;2023-02-05T06:44:01;4.70;99.90
31038;DHT22;17702;47.590;7.666;2023-02-05T06:46:28;4.70;99.90
31038;DHT22;17702;47.590;7.666;2023-02-05T06:48:53;4.70;99.90
31038;DHT22;17702;47.590;7.666;2023-02-05T06:51:19;4.70;99.90
31038;DHT22;17702;47.590;7.666;2023-02-05T06:53:44;4.80;99.90
31038;DHT22;17702;47.590;7.666;2023-02-05T06:56:10;4.70;99.90
31038;DHT22;17702;47.590;7.666;2023-02-05T06:58:35;4.70;99.90
31038;DHT22;17702;47.590;7.666;2023-02-05T07:01:01;4.80;99.90
31038;DHT22;17702;47.590;7.666;2023-02-05T07:03:26;4.90;99.90
31038;DHT22;17702;47.590;7.666;2023-02-05T07:05:52;4.80;99.90
31038;DHT22;17702;47.590;7.666;2023-02-05T07:08:17;4.80;99.90
31038;DHT22;17702;47.590;7.666;2023-02-05T07:10:43;4.70;99.90
31038;DHT22;17702;47.590;7.666;2023-02-05T07:13:08;4.90;99.90
31038;DHT22;17702;47.590;7.666;2023-02-05T07:15:35;4.80;99.90
31038;DHT22;17702;47.590;7.666;2023-02-05T07:18:01;4.90;99.90
31038;DHT22;17702;47.590;7.666;2023-02-05T07:20:27;4.90;99.90
31038;DHT22;17702;47.590;7.666;2023-02-05T07:22:52;4.80;99.90
31038;DHT22;17702;47.590;7.666;2023-02-05T07:25:18;4.80;99.90
31038;DHT22;17702;47.590;7.666;2023-02-05T07:27:43;4.90;99.90
31038;DHT22;17702;47.590;7.666;2023-02-05T07:30:09;4.80;99.90
31038;DHT22;17702;47.590;7.666;2023-02-05T07:32:35;4.90;99.90
31038;DHT22;17702;47.590;7.666;2023-02-05T07:35:00;4.90;99.90
31038;DHT22;17702;47.590;7.666;2023-02-05T07:37:26;4.90;99.90
31038;DHT22;17702;47.590;7.666;2023-02-05T07:39:51;4.80;99.90
31038;DHT22;17702;47.590;7.666;2023-02-05T07:42:17;4.80;99.90
31038;DHT22;17702;47.590;7.666;2023-02-05T07:44:42;4.80;99.90
31038;DHT22;17702;47.590;7.666;2023-02-05T07:47:08;4.90;99.90
31038;DHT22;17702;47.590;7.666;2023-02-05T07:49:33;4.90;99.90
31038;DHT22;17702;47.590;7.666;2023-02-05T07:52:00;5.00;99.90
31038;DHT22;17702;47.590;7.666;2023-02-05T07:54:25;4.90;99.90
31038;DHT22;17702;47.590;7.666;2023-02-05T07:56:51;4.80;99.90
31038;DHT22;17702;47.590;7.666;2023-02-05T07:59:16;4.80;99.90
31038;DHT22;17702;47.590;7.666;2023-02-05T08:01:42;4.90;99.90
31038;DHT22;17702;47.590;7.666;2023-02-05T08:04:07;4.80;99.90
31038;DHT22;17702;47.590;7.666;2023-02-05T08:06:33;4.90;99.90
31038;DHT22;17702;47.590;7.666;2023-02-05T08:08:59;5.10;99.90
31038;DHT22;17702;47.590;7.666;2023-02-05T08:11:24;5.10;99.90
31038;DHT22;17702;47.590;7.666;2023-02-05T08:13:50;5.20;99.90
31038;DHT22;17702;47.590;7.666;2023-02-05T08:16:15;5.30;99.90
31038;DHT22;17702;47.590;7.666;2023-02-05T08:18:41;5.30;99.90
31038;DHT22;17702;47.590;7.666;2023-02-05T08:21:06;5.40;99.90
31038;DHT22;17702;47.590;7.666;2023-02-05T08:23:32;5.50;99.90
31038;DHT22;17702;47.590;7.666;2023-02-05T08:25:57;5.60;99.90
31038;DHT22;17702;47.590;7.666;2023-02-05T08:28:24;5.70;99.90
31038;DHT22;17702;47.590;7.666;2023-02-05T08:30:50;5.70;99.90
31038;DHT22;17702;47.590;7.666;2023-02-05T08:33:15;5.70;99.90
31038;DHT22;17702;47.590;7.666;2023-02-05T08:35:41;5.60;99.90
31038;DHT22;17702;47.590;7.666;2023-02-05T08:38:07;5.60;99.90
31038;DHT22;17702;47.590;7.666;2023-02-05T08:40:32;5.70;99.90
31038;DHT22;17702;47.590;7.666;2023-02-05T08:42:58;5.60;99.90
31038;DHT22;17702;47.590;7.666;2023-02-05T08:45:25;5.70;99.90
31038;DHT22;17702;47.590;7.666;2023-02-05T08:47:52;5.70;99.90
31038;DHT22;17702;47.590;7.666;2023-02-05T08:50:18;5.60;99.90
31038;DHT22;17702;47.590;7.666;2023-02-05T08:52:44;5.60;99.90
31038;DHT22;17702;47.590;7.666;2023-02-05T08:55:09;5.60;99.90
31038;DHT22;17702;47.590;7.666;2023-02-05T08:57:35;5.60;99.90
31038;DHT22;17702;47.590;7.666;2023-02-05T09:00:01;5.60;99.90
31038;DHT22;17702;47.590;7.666;2023-02-05T09:02:26;5.50;99.90
31038;DHT22;17702;47.590;7.666;2023-02-05T09:04:51;5.50;99.90
31038;DHT22;17702;47.590;7.666;2023-02-05T09:07:17;5.60;99.90
31038;DHT22;17702;47.590;7.666;2023-02-05T09:09:42;5.60;99.90
31038;DHT22;17702;47.590;7.666;2023-02-05T09:12:08;5.60;99.90
31038;DHT22;17702;47.590;7.666;2023-02-05T09:14:35;5.70;99.90
31038;DHT22;17702;47.590;7.666;2023-02-05T09:17:01;5.70;99.90
31038;DHT22;17702;47.590;7.666;2023-02-05T09:19:27;5.70;99.90
31038;DHT22;17702;47.590;7.666;2023-02-05T09:21:54;6.10;99.90
31038;DHT22;17702;47.590;7.666;2023-02-05T09:24:20;8.90;99.90
31038;DHT22;17702;47.590;7.666;2023-02-05T09:26:45;9.20;99.90
31038;DHT22;17702;47.590;7.666;2023-02-05T09:29:11;9.00;99.40
31038;DHT22;17702;47.590;7.666;2023-02-05T09:31:36;8.60;99.20
31038;DHT22;17702;47.590;7.666;2023-02-05T09:34:02;8.50;99.90
31038;DHT22;17702;47.590;7.666;2023-02-05T09:36:27;8.60;99.30
31038;DHT22;17702;47.590;7.666;2023-02-05T09:38:53;8.20;99.90
31038;DHT22;17702;47.590;7.666;2023-02-05T09:41:31;7.80;99.90
31038;DHT22;17702;47.590;7.666;2023-02-05T09:44:48;7.60;99.90
31038;DHT22;17702;47.590;7.666;2023-02-05T09:46:51;7.40;99.90
31038;DHT22;17702;47.590;7.666;2023-02-05T09:52:19;7.10;99.90
31038;DHT22;17702;47.590;7.666;2023-02-05T09:54:42;7.00;99.90
31038;DHT22;17702;47.590;7.666;2023-02-05T09:57:11;7.00;99.90
31038;DHT22;17702;47.590;7.666;2023-02-05T09:59:40;7.00;99.90
31038;DHT22;17702;47.590;7.666;2023-02-05T10:02:17;7.00;99.90
31038;DHT22;17702;47.590;7.666;2023-02-05T10:04:46;7.10;99.90
31038;DHT22;17702;47.590;7.666;2023-02-05T10:07:15;7.10;99.90
31038;DHT22;17702;47.590;7.666;2023-02-05T10:15:19;6.90;99.90
31038;DHT22;17702;47.590;7.666;2023-02-05T10:20:14;6.90;99.90
31038;DHT22;17702;47.590;7.666;2023-02-05T10:22:53;6.90;99.90
31038;DHT22;17702;47.590;7.666;2023-02-05T10:28:19;6.90;99.90
31038;DHT22;17702;47.590;7.666;2023-02-05T10:33:18;7.00;99.90
31038;DHT22;17702;47.590;7.666;2023-02-05T10:35:50;7.00;99.90
31038;DHT22;17702;47.590;7.666;2023-02-05T10:38:24;7.00;99.90
31038;DHT22;17702;47.590;7.666;2023-02-05T10:40:51;7.00;99.90
31038;DHT22;17702;47.590;7.666;2023-02-05T10:43:23;7.10;99.90
31038;DHT22;17702;47.590;7.666;2023-02-05T10:45:50;7.10;99.90
31038;DHT22;17702;47.590;7.666;2023-02-05T10:51:04;7.10;99.90
31038;DHT22;17702;47.590;7.666;2023-02-05T10:53:30;7.10;99.90
31038;DHT22;17702;47.590;7.666;2023-02-05T10:55:56;7.10;99.90
31038;DHT22;17702;47.590;7.666;2023-02-05T11:00:47;7.10;99.90
31038;DHT22;17702;47.590;7.666;2023-02-05T11:03:16;7.20;99.90
31038;DHT22;17702;47.590;7.666;2023-02-05T11:05:42;7.20;99.90
31038;DHT22;17702;47.590;7.666;2023-02-05T11:10:52;7.20;99.90
31038;DHT22;17702;47.590;7.666;2023-02-05T11:13:18;7.10;99.90
31038;DHT22;17702;47.590;7.666;2023-02-05T11:15:54;7.00;99.90
31038;DHT22;17702;47.590;7.666;2023-02-05T11:18:22;6.90;99.90
31038;DHT22;17702;47.590;7.666;2023-02-05T11:20:58;6.90;99.90
31038;DHT22;17702;47.590;7.666;2023-02-05T11:23:25;7.00;99.90
31038;DHT22;17702;47.590;7.666;2023-02-05T11:25:52;6.90;99.90
31038;DHT22;17702;47.590;7.666;2023-02-05T11:28:19;6.80;99.90
31038;DHT22;17702;47.590;7.666;2023-02-05T11:30:45;6.70;99.90
31038;DHT22;17702;47.590;7.666;2023-02-05T11:38:22;6.80;99.90
31038;DHT22;17702;47.590;7.666;2023-02-05T11:40:54;6.80;99.90
31038;DHT22;17702;47.590;7.666;2023-02-05T11:43:28;6.80;99.90
31038;DHT22;17702;47.590;7.666;2023-02-05T11:45:55;6.60;99.90
31038;DHT22;17702;47.590;7.666;2023-02-05T11:48:31;6.60;99.90
31038;DHT22;17702;47.590;7.666;2023-02-05T11:50:58;6.60;99.90
31038;DHT22;17702;47.590;7.666;2023-02-05T11:53:24;6.50;99.90
31038;DHT22;17702;47.590;7.666;2023-02-05T11:55:51;6.50;99.90
31038;DHT22;17702;47.590;7.666;2023-02-05T11:58:19;6.50;99.90
31038;DHT22;17702;47.590;7.666;2023-02-05T12:00:51;6.60;99.90
31038;DHT22;17702;47.590;7.666;2023-02-05T12:03:18;6.60;99.90
31038;DHT22;17702;47.590;7.666;2023-02-05T12:05:46;6.70;99.90
31038;DHT22;17702;47.590;7.666;2023-02-05T12:13:23;6.70;99.90
31038;DHT22;17702;47.590;7.666;2023-02-05T12:15:52;6.70;99.90
31038;DHT22;17702;47.590;7.666;2023-02-05T12:18:37;6.70;99.90
31038;DHT22;17702;47.590;7.666;2023-02-05T12:26:45;6.80;99.90
31038;DHT22;17702;47.590;7.666;2023-02-05T12:31:58;7.00;99.90
31038;DHT22;17702;47.590;7.666;2023-02-05T12:34:33;7.00;99.90
31038;DHT22;17702;47.590;7.666;2023-02-05T12:37:02;6.90;99.90
31038;DHT22;17702;47.590;7.666;2023-02-05T12:42:12;6.80;99.90
31038;DHT22;17702;47.590;7.666;2023-02-05T12:57:39;6.60;99.90
31038;DHT22;17702;47.590;7.666;2023-02-05T13:00:10;6.60;99.90
31038;DHT22;17702;47.590;7.666;2023-02-05T13:02:39;6.60;99.90
31038;DHT22;17702;47.590;7.666;2023-02-05T13:05:11;6.60;99.90
31038;DHT22;17702;47.590;7.666;2023-02-05T13:07:41;6.60;99.90
31038;DHT22;17702;47.590;7.666;2023-02-05T13:10:25;6.60;99.90
31038;DHT22;17702;47.590;7.666;2023-02-05T13:13:02;6.70;99.90
31038;DHT22;17702;47.590;7.666;2023-02-05T13:15:31;6.80;99.90
31038;DHT22;17702;47.590;7.666;2023-02-05T13:20:47;6.90;99.90
31038;DHT22;17702;47.590;7.666;2023-02-05T13:23:28;6.90;99.90
31038;DHT22;17702;47.590;7.666;2023-02-05T13:26:14;6.90;99.90
31038;DHT22;17702;47.590;7.666;2023-02-05T13:28:48;7.00;99.90
31038;DHT22;17702;47.590;7.666;2023-02-05T13:31:30;7.10;99.90
31038;DHT22;17702;47.590;7.666;2023-02-05T13:33:56;7.10;99.90
31038;DHT22;17702;47.590;7.666;2023-02-05T13:49:56;7.40;99.90
31038;DHT22;17702;47.590;7.666;2023-02-05T13:55:03;7.30;99.90
31038;DHT22;17702;47.590;7.666;2023-02-05T13:58:00;7.30;99.90
31038;DHT22;17702;47.590;7.666;2023-02-05T14:00:29;7.30;99.90
31038;DHT22;17702;47.590;7.666;2023-02-05T14:02:55;7.20;99.90
31038;DHT22;17702;47.590;7.666;2023-02-05T14:05:28;7.20;99.90
31038;DHT22;17702;47.590;7.666;2023-02-05T14:07:54;7.30;99.90
31038;DHT22;17702;47.590;7.666;2023-02-05T14:10:23;7.40;99.90
31038;DHT22;17702;47.590;7.666;2023-02-05T14:12:49;7.30;99.90
31038;DHT22;17702;47.590;7.666;2023-02-05T14:22:46;7.20;99.90
31038;DHT22;17702;47.590;7.666;2023-02-05T14:27:56;7.20;99.90
31038;DHT22;17702;47.590;7.666;2023-02-05T14:32:58;7.10;99.90
31038;DHT22;17702;47.590;7.666;2023-02-05T14:35:36;7.00;99.90
31038;DHT22;17702;47.590;7.666;2023-02-05T14:40:59;7.00;99.90
31038;DHT22;17702;47.590;7.666;2023-02-05T14:43:35;7.00;99.90
31038;DHT22;17702;47.590;7.666;2023-02-05T14:46:03;7.00;99.90
31038;DHT22;17702;47.590;7.666;2023-02-05T14:48:29;7.00;99.90
31038;DHT22;17702;47.590;7.666;2023-02-05T14:51:00;7.00;99.90
31038;DHT22;17702;47.590;7.666;2023-02-05T14:53:26;7.00;99.90
31038;DHT22;17702;47.590;7.666;2023-02-05T14:55:53;7.00;99.90
31038;DHT22;17702;47.590;7.666;2023-02-05T15:00:50;7.00;99.90
31038;DHT22;17702;47.590;7.666;2023-02-05T15:03:30;7.00;99.90
31038;DHT22;17702;47.590;7.666;2023-02-05T15:06:02;7.00;99.90
31038;DHT22;17702;47.590;7.666;2023-02-05T15:11:04;7.00;99.90
31038;DHT22;17702;47.590;7.666;2023-02-05T15:13:32;7.00;99.90
31038;DHT22;17702;47.590;7.666;2023-02-05T15:16:17;7.10;99.90
31038;DHT22;17702;47.590;7.666;2023-02-05T15:18:52;7.00;99.90
31038;DHT22;17702;47.590;7.666;2023-02-05T15:21:21;6.90;99.90
31038;DHT22;17702;47.590;7.666;2023-02-05T15:24:33;6.90;99.90
31038;DHT22;17702;47.590;7.666;2023-02-05T15:29:12;6.80;99.90
31038;DHT22;17702;47.590;7.666;2023-02-05T15:31:48;6.80;99.90
31038;DHT22;17702;47.590;7.666;2023-02-05T15:36:53;6.80;99.90
31038;DHT22;17702;47.590;7.666;2023-02-05T15:41:45;6.90;99.90
31038;DHT22;17702;47.590;7.666;2023-02-05T15:44:19;6.80;99.90
31038;DHT22;17702;47.590;7.666;2023-02-05T15:46:45;6.80;99.90
31038;DHT22;17702;47.590;7.666;2023-02-05T15:49:11;6.80;99.90
31038;DHT22;17702;47.590;7.666;2023-02-05T15:51:37;6.70;99.90
31038;DHT22;17702;47.590;7.666;2023-02-05T15:54:03;6.80;99.90
31038;DHT22;17702;47.590;7.666;2023-02-05T15:56:30;6.80;99.90
31038;DHT22;17702;47.590;7.666;2023-02-05T16:01:35;6.80;99.90
31038;DHT22;17702;47.590;7.666;2023-02-05T16:04:01;6.90;99.90
31038;DHT22;17702;47.590;7.666;2023-02-05T16:06:27;6.90;99.90
31038;DHT22;17702;47.590;7.666;2023-02-05T16:08:53;6.90;99.90
31038;DHT22;17702;47.590;7.666;2023-02-05T16:11:32;6.90;99.90
31038;DHT22;17702;47.590;7.666;2023-02-05T16:14:05;6.80;99.90
31038;DHT22;17702;47.590;7.666;2023-02-05T16:16:30;6.90;99.90
31038;DHT22;17702;47.590;7.666;2023-02-05T16:18:58;7.00;99.90
31038;DHT22;17702;47.590;7.666;2023-02-05T16:21:30;7.00;99.90
31038;DHT22;17702;47.590;7.666;2023-02-05T16:23:59;7.00;99.90
31038;DHT22;17702;47.590;7.666;2023-02-05T16:26:27;7.00;99.90
31038;DHT22;17702;47.590;7.666;2023-02-05T16:28:57;7.10;99.90
31038;DHT22;17702;47.590;7.666;2023-02-05T16:31:24;7.10;99.90
31038;DHT22;17702;47.590;7.666;2023-02-05T16:33:51;7.10;99.90
31038;DHT22;17702;47.590;7.666;2023-02-05T16:36:20;7.20;99.90
31038;DHT22;17702;47.590;7.666;2023-02-05T16:38:52;7.10;99.90
31038;DHT22;17702;47.590;7.666;2023-02-05T16:41:20;7.00;99.90
31038;DHT22;17702;47.590;7.666;2023-02-05T16:43:46;6.90;99.90
31038;DHT22;17702;47.590;7.666;2023-02-05T16:48:46;6.80;99.90
31038;DHT22;17702;47.590;7.666;2023-02-05T16:53:50;6.90;99.90
31038;DHT22;17702;47.590;7.666;2023-02-05T16:56:16;6.90;99.90
31038;DHT22;17702;47.590;7.666;2023-02-05T16:58:45;6.80;99.90
31038;DHT22;17702;47.590;7.666;2023-02-05T17:01:11;6.90;99.90
31038;DHT22;17702;47.590;7.666;2023-02-05T17:03:37;6.80;99.90
31038;DHT22;17702;47.590;7.666;2023-02-05T17:06:07;6.80;99.90
31038;DHT22;17702;47.590;7.666;2023-02-05T17:08:34;6.70;99.90
31038;DHT22;17702;47.590;7.666;2023-02-05T17:11:02;6.60;99.90
31038;DHT22;17702;47.590;7.666;2023-02-05T17:15:56;6.50;99.90
31038;DHT22;17702;47.590;7.666;2023-02-05T17:18:41;6.30;99.90
31038;DHT22;17702;47.590;7.666;2023-02-05T17:21:22;6.20;99.90
31038;DHT22;17702;47.590;7.666;2023-02-05T17:23:49;6.20;99.90
31038;DHT22;17702;47.590;7.666;2023-02-05T17:26:14;6.20;99.90
31038;DHT22;17702;47.590;7.666;2023-02-05T17:28:40;6.20;99.90
31038;DHT22;17702;47.590;7.666;2023-02-05T17:31:09;6.20;99.90
31038;DHT22;17702;47.590;7.666;2023-02-05T17:33:34;6.20;99.90
31038;DHT22;17702;47.590;7.666;2023-02-05T17:36:00;6.20;99.90
31038;DHT22;17702;47.590;7.666;2023-02-05T17:38:25;6.30;99.90
31038;DHT22;17702;47.590;7.666;2023-02-05T17:40:51;6.30;99.90
31038;DHT22;17702;47.590;7.666;2023-02-05T17:43:36;6.40;99.90
31038;DHT22;17702;47.590;7.666;2023-02-05T17:46:03;6.50;99.90
31038;DHT22;17702;47.590;7.666;2023-02-05T17:48:30;6.50;99.90
31038;DHT22;17702;47.590;7.666;2023-02-05T17:50:55;6.60;99.90
31038;DHT22;17702;47.590;7.666;2023-02-05T17:53:23;6.60;99.90
31038;DHT22;17702;47.590;7.666;2023-02-05T17:55:49;6.60;99.90
31038;DHT22;17702;47.590;7.666;2023-02-05T17:58:14;6.60;99.90
31038;DHT22;17702;47.590;7.666;2023-02-05T18:00:40;6.60;99.90
31038;DHT22;17702;47.590;7.666;2023-02-05T18:03:05;6.70;99.90
31038;DHT22;17702;47.590;7.666;2023-02-05T18:05:31;6.70;99.90
31038;DHT22;17702;47.590;7.666;2023-02-05T18:07:56;6.70;99.90
31038;DHT22;17702;47.590;7.666;2023-02-05T18:10:24;6.70;99.90
31038;DHT22;17702;47.590;7.666;2023-02-05T18:12:49;6.80;99.90